Time;durP1;ratioP1;P1;durP2;ratioP2;P2;SDS_P1;SDS_P2;PMS_P1;PMS_P2;Temp;Humidity;BMP_temperature;BMP_pressure;BME280_temperature;BME280_humidity;BME280_pressure;Samples;Min_cycle;Max_cycle;Signal;HPM_P1;HPM_P2
2022/11/17 00:00:19;;;;;;;29.77;19.45;;;8.50;99.90;;;;;;5058382;28;20519;-31
2022/11/17 00:02:46;;;;;;;30.20;19.23;;;8.50;99.90;;;;;;5058124;28;20043;-31
2022/11/17 00:05:12;;;;;;;28.48;19.02;;;8.50;99.90;;;;;;5058402;28;20102;-31
2022/11/17 00:07:38;;;;;;;29.05;19.77;;;8.60;99.90;;;;;;5058232;28;20119;-31
2022/11/17 00:10:04;;;;;;;29.95;19.45;;;8.60;99.90;;;;;;5058635;28;20033;-28
2022/11/17 00:15:14;;;;;;;;;;;8.60;99.90;;;;;;5076261;28;20102;-29
2022/11/17 00:17:40;;;;;;;30.95;17.88;;;8.60;99.90;;;;;;5075596;28;19916;-31
2022/11/17 00:22:51;;;;;;;27.25;18.58;;;8.60;99.90;;;;;;5076360;28;20044;-29
2022/11/17 00:25:16;;;;;;;30.77;20.23;;;8.60;99.90;;;;;;5057763;28;20563;-29
2022/11/17 00:27:43;;;;;;;29.15;19.35;;;8.60;99.90;;;;;;5058441;28;20112;-28
2022/11/17 00:34:03;;;;;;;27.92;18.67;;;8.60;99.90;;;;;;5058014;28;20075;-30
2022/11/17 00:35:52;;;;;;;25.50;17.63;;;8.60;99.90;;;;;;5075156;28;20044;-30
2022/11/17 00:38:18;;;;;;;26.63;18.92;;;8.60;99.90;;;;;;5058124;28;20067;-29
2022/11/17 00:40:44;;;;;;;27.80;19.52;;;8.60;99.90;;;;;;5058481;28;20048;-29
2022/11/17 00:43:10;;;;;;;25.13;17.85;;;8.60;99.90;;;;;;5075768;28;20115;-30
2022/11/17 00:45:35;;;;;;;25.27;17.40;;;8.60;99.90;;;;;;5057650;28;20119;-34
2022/11/17 00:48:02;;;;;;;25.98;18.17;;;8.60;99.90;;;;;;5057945;28;20083;-32
2022/11/17 00:50:28;;;;;;;23.60;17.88;;;8.60;99.90;;;;;;5076021;28;20493;-31
2022/11/17 00:52:54;;;;;;;26.30;19.20;;;8.60;99.90;;;;;;5057895;28;20044;-31
2022/11/17 00:55:20;;;;;;;24.33;17.85;;;8.60;99.90;;;;;;5076137;28;20083;-30
2022/11/17 00:57:45;;;;;;;24.42;17.45;;;8.60;99.90;;;;;;5076221;28;20093;-30
2022/11/17 01:00:11;;;;;;;23.17;16.90;;;8.60;99.90;;;;;;5057746;28;20091;-32
2022/11/17 01:02:37;;;;;;;23.33;16.60;;;8.60;99.90;;;;;;5057732;28;20393;-30
2022/11/17 01:05:03;;;;;;;24.42;17.73;;;8.60;99.90;;;;;;5074455;28;20139;-32
2022/11/17 01:07:29;;;;;;;26.73;18.45;;;8.60;99.90;;;;;;5075397;28;20041;-30
2022/11/17 01:09:55;;;;;;;23.45;17.23;;;8.60;99.90;;;;;;5057840;28;20378;-30
2022/11/17 01:12:21;;;;;;;23.55;16.58;;;8.60;99.90;;;;;;5057804;28;20036;-30
2022/11/17 01:14:46;;;;;;;22.92;16.85;;;8.60;99.90;;;;;;5058036;28;20075;-30
2022/11/17 01:17:12;;;;;;;20.38;16.67;;;8.60;99.90;;;;;;5075323;28;20063;-30
2022/11/17 01:19:38;;;;;;;21.83;16.65;;;8.60;99.90;;;;;;5077725;28;20040;-31
2022/11/17 01:22:04;;;;;;;24.33;16.48;;;8.60;99.90;;;;;;5077835;28;20416;-30
2022/11/17 01:24:30;;;;;;;21.48;16.42;;;8.60;99.90;;;;;;5077954;28;20477;-30
2022/11/17 01:26:56;;;;;;;23.83;16.40;;;8.60;99.90;;;;;;5077802;28;20032;-31
2022/11/17 01:29:22;;;;;;;20.38;16.58;;;8.60;99.90;;;;;;5059883;28;20068;-32
2022/11/17 01:31:51;;;;;;;20.17;16.00;;;8.60;99.90;;;;;;5074249;28;20036;-30
2022/11/17 01:34:17;;;;;;;19.92;15.77;;;8.60;99.90;;;;;;5057519;28;20068;-30
2022/11/17 01:39:29;;;;;;;21.40;15.38;;;8.60;99.90;;;;;;5075061;28;20083;-30
2022/11/17 01:41:56;;;;;;;20.50;15.25;;;8.60;99.90;;;;;;5057248;28;20037;-30
2022/11/17 01:44:40;;;;;;;22.10;14.65;;;8.60;99.90;;;;;;5056861;28;20044;-29
2022/11/17 01:47:20;;;;;;;24.20;15.85;;;8.60;99.90;;;;;;5072828;28;20032;-31
2022/11/17 01:49:49;;;;;;;17.55;14.52;;;8.60;99.90;;;;;;5073830;28;20127;-30
2022/11/17 01:52:15;;;;;;;21.35;15.85;;;8.60;99.90;;;;;;5037481;28;20040;-31
2022/11/17 01:54:44;;;;;;;20.00;15.85;;;8.60;99.90;;;;;;5036950;28;20044;-30
2022/11/17 01:57:25;;;;;;;20.58;15.05;;;8.60;99.90;;;;;;5060170;28;20104;-30
2022/11/17 02:00:00;;;;;;;19.00;14.38;;;8.60;99.90;;;;;;5059911;28;20043;-32
2022/11/17 02:02:27;;;;;;;21.33;14.88;;;8.60;99.90;;;;;;5077011;28;20043;-31
2022/11/17 02:05:04;;;;;;;22.80;15.60;;;8.60;99.90;;;;;;5095375;28;20036;-31
2022/11/17 02:07:33;;;;;;;24.02;15.35;;;8.60;99.90;;;;;;5077779;28;20114;-31
2022/11/17 02:10:01;;;;;;;20.95;15.82;;;8.60;99.90;;;;;;5095653;28;20496;-29
2022/11/17 02:12:29;;;;;;;22.20;15.52;;;8.60;99.90;;;;;;5077381;28;20040;-30
2022/11/17 02:14:55;;;;;;;17.25;14.32;;;8.60;99.90;;;;;;5071266;28;20051;-31
2022/11/17 02:17:22;;;;;;;20.52;14.75;;;8.60;99.90;;;;;;5057430;28;20032;-30
2022/11/17 02:20:09;;;;;;;24.77;15.18;;;8.60;99.90;;;;;;5056534;28;20044;-31
2022/11/17 02:22:37;;;;;;;21.02;15.90;;;8.60;99.90;;;;;;5056409;28;20079;-30
2022/11/17 02:25:28;;;;;;;21.40;14.82;;;8.60;99.90;;;;;;5056740;28;20384;-30
2022/11/17 02:28:23;;;;;;;24.00;16.08;;;8.60;99.90;;;;;;5056440;28;20065;-30
2022/11/17 02:30:55;;;;;;;26.38;15.52;;;8.60;99.90;;;;;;5052159;28;20094;-31
2022/11/17 02:33:20;;;;;;;22.88;16.40;;;8.60;99.90;;;;;;5073323;28;20516;-31
2022/11/17 02:36:11;;;;;;;22.45;16.90;;;8.50;99.90;;;;;;5074009;28;20041;-30
2022/11/17 02:38:53;;;;;;;24.88;16.20;;;8.50;99.90;;;;;;5073161;28;20044;-30
2022/11/17 02:41:57;;;;;;;23.40;16.92;;;8.50;99.90;;;;;;5056162;28;20099;-30
2022/11/17 02:44:40;;;;;;;23.05;17.02;;;8.50;99.90;;;;;;5042215;28;20090;-31
2022/11/17 02:47:17;;;;;;;22.95;16.95;;;8.50;99.90;;;;;;5056184;28;20043;-30
2022/11/17 02:49:49;;;;;;;23.98;17.33;;;8.40;99.90;;;;;;5039792;28;20490;-31
2022/11/17 02:52:16;;;;;;;22.85;16.95;;;8.50;99.90;;;;;;5056152;28;20040;-30
2022/11/17 02:54:42;;;;;;;24.42;16.33;;;8.40;99.90;;;;;;5074202;28;20471;-30
2022/11/17 02:57:32;;;;;;;24.17;18.38;;;8.40;99.90;;;;;;5072848;28;20040;-30
2022/11/17 03:00:10;;;;;;;23.70;17.17;;;8.40;99.90;;;;;;5055125;28;20040;-30
2022/11/17 03:02:54;;;;;;;25.55;18.42;;;8.40;99.90;;;;;;5072942;28;20090;-31
2022/11/17 03:05:35;;;;;;;25.42;18.30;;;8.40;99.90;;;;;;5072699;28;20029;-30
2022/11/17 03:08:16;;;;;;;25.05;17.80;;;8.30;99.90;;;;;;5072911;28;20048;-29
2022/11/17 03:10:58;;;;;;;27.25;18.67;;;8.30;99.90;;;;;;5073084;28;20051;-31
2022/11/17 03:13:31;;;;;;;24.48;18.67;;;8.30;99.90;;;;;;5055547;28;20040;-31
2022/11/17 03:16:29;;;;;;;26.60;17.73;;;8.30;99.90;;;;;;5073858;28;20125;-29
2022/11/17 03:19:04;;;;;;;24.40;17.98;;;8.30;99.90;;;;;;5072624;28;20040;-30
2022/11/17 03:21:54;;;;;;;30.35;18.85;;;8.30;99.90;;;;;;5056015;28;20044;-30
2022/11/17 03:24:22;;;;;;;26.50;17.83;;;8.30;99.90;;;;;;5055945;28;20075;-31
2022/11/17 03:27:00;;;;;;;26.88;18.08;;;8.30;99.90;;;;;;5072567;28;20093;-28
2022/11/17 03:29:29;;;;;;;26.58;18.63;;;8.20;99.90;;;;;;5055854;28;20036;-29
2022/11/17 03:31:59;;;;;;;25.92;19.10;;;8.20;99.90;;;;;;5055901;28;20481;-29
2022/11/17 03:34:28;;;;;;;25.80;17.67;;;8.20;99.90;;;;;;5055818;28;20436;-29
2022/11/17 03:36:59;;;;;;;25.67;17.55;;;8.20;99.90;;;;;;5055858;28;20362;-30
2022/11/17 03:39:42;;;;;;;23.08;17.30;;;8.20;99.90;;;;;;5073502;28;20039;-30
2022/11/17 03:42:19;;;;;;;23.42;16.73;;;8.20;99.90;;;;;;5056079;28;20474;-29
2022/11/17 03:44:51;;;;;;;26.38;18.95;;;8.20;99.90;;;;;;5056131;28;20094;-30
2022/11/17 03:47:22;;;;;;;22.55;15.77;;;8.20;99.90;;;;;;5055675;28;20515;-30
2022/11/17 03:50:10;;;;;;;23.85;16.75;;;8.20;99.90;;;;;;5073493;28;20044;-30
2022/11/17 03:52:36;;;;;;;22.52;16.42;;;8.10;99.90;;;;;;5072796;28;20052;-29
2022/11/17 03:55:03;;;;;;;22.75;17.13;;;8.10;99.90;;;;;;5055811;28;20071;-29
2022/11/17 03:57:37;;;;;;;23.42;17.00;;;8.10;99.90;;;;;;5055848;28;20040;-30
2022/11/17 04:00:15;;;;;;;22.08;15.50;;;8.20;99.90;;;;;;5072253;28;20048;-29
2022/11/17 04:02:46;;;;;;;23.45;15.48;;;8.20;99.90;;;;;;5072999;28;20074;-30
2022/11/17 04:05:14;;;;;;;20.63;14.85;;;8.20;99.90;;;;;;5055348;28;20040;-30
2022/11/17 04:07:45;;;;;;;25.20;16.38;;;8.20;99.90;;;;;;5055574;28;20043;-30
2022/11/17 04:10:17;;;;;;;22.40;16.02;;;8.10;99.90;;;;;;5056099;28;20125;-30
2022/11/17 04:18:13;;;;;;;20.35;15.13;;;8.10;99.90;;;;;;5076878;28;20041;-30
2022/11/17 04:20:40;;;;;;;19.52;14.82;;;8.10;99.90;;;;;;5059161;28;20101;-31
2022/11/17 04:23:10;;;;;;;20.25;13.82;;;8.10;99.90;;;;;;5058811;28;20036;-30
2022/11/17 04:28:37;;;;;;;20.63;14.50;;;8.10;99.90;;;;;;5077108;28;20044;-29
2022/11/17 04:31:09;;;;;;;17.00;14.18;;;8.10;99.90;;;;;;5058979;28;20040;-29
2022/11/17 04:33:36;;;;;;;18.95;14.27;;;8.10;99.90;;;;;;5075502;28;20044;-29
2022/11/17 04:36:03;;;;;;;22.48;15.48;;;8.10;99.90;;;;;;5076800;28;20055;-29
2022/11/17 04:38:29;;;;;;;21.30;14.18;;;8.10;99.90;;;;;;5076715;28;20037;-29
2022/11/17 04:43:50;;;;;;;18.90;13.88;;;8.10;99.90;;;;;;5077484;28;20089;-31
2022/11/17 04:46:17;;;;;;;17.35;13.88;;;8.10;99.90;;;;;;5057921;28;20044;-29
2022/11/17 04:48:43;;;;;;;18.77;13.65;;;8.00;99.90;;;;;;5058417;28;20072;-31
2022/11/17 04:51:09;;;;;;;16.77;13.30;;;8.00;99.90;;;;;;5058474;28;20059;-29
2022/11/17 04:53:35;;;;;;;16.52;13.77;;;8.00;99.90;;;;;;5058892;28;20575;-30
2022/11/17 04:56:02;;;;;;;16.20;13.02;;;8.00;99.90;;;;;;5076110;28;20040;-31
2022/11/17 04:58:28;;;;;;;16.77;13.02;;;8.00;99.90;;;;;;5076039;28;20048;-30
2022/11/17 05:00:54;;;;;;;14.98;12.40;;;8.00;99.90;;;;;;5058040;28;20086;-30
2022/11/17 05:03:21;;;;;;;16.10;12.68;;;7.90;99.90;;;;;;5058412;28;20525;-31
2022/11/17 05:05:50;;;;;;;15.55;11.77;;;7.90;99.90;;;;;;5058308;28;20039;-31
2022/11/17 05:08:16;;;;;;;14.27;12.32;;;7.90;99.90;;;;;;5074558;28;20072;-30
2022/11/17 05:13:26;;;;;;;14.70;11.88;;;7.90;99.90;;;;;;5075720;28;20104;-30
2022/11/17 05:18:42;;;;;;;11.60;9.75;;;7.90;99.90;;;;;;5075989;28;20048;-29
2022/11/17 05:21:09;;;;;;;13.95;11.48;;;7.80;99.90;;;;;;5058094;28;20504;-30
2022/11/17 05:23:55;;;;;;;13.38;11.02;;;7.80;99.90;;;;;;5057222;28;20470;-29
2022/11/17 05:26:26;;;;;;;12.40;11.10;;;7.80;99.90;;;;;;5076109;28;20043;-30
2022/11/17 05:28:54;;;;;;;13.02;11.50;;;7.70;99.90;;;;;;5076083;28;20040;-36
2022/11/17 05:31:21;;;;;;;13.52;11.82;;;7.70;99.90;;;;;;5058322;28;20119;-29
2022/11/17 05:33:47;;;;;;;11.32;9.70;;;7.70;99.90;;;;;;5057766;28;20066;-29
2022/11/17 05:36:13;;;;;;;15.52;11.68;;;7.60;99.90;;;;;;5057335;28;20041;-33
2022/11/17 05:38:39;;;;;;;15.60;12.43;;;7.60;99.90;;;;;;5058183;28;20126;-28
2022/11/17 05:41:05;;;;;;;13.68;12.07;;;7.60;99.90;;;;;;5057132;28;20299;-29
2022/11/17 05:43:32;;;;;;;16.10;12.05;;;7.60;99.90;;;;;;5038000;28;20095;-28
2022/11/17 05:45:58;;;;;;;15.57;11.88;;;7.50;99.90;;;;;;5034899;28;20082;-29
2022/11/17 05:48:24;;;;;;;16.75;12.43;;;7.50;99.90;;;;;;5035066;28;20028;-29
2022/11/17 05:50:56;;;;;;;16.02;12.07;;;7.50;99.90;;;;;;5035608;28;20403;-28
2022/11/17 05:53:23;;;;;;;14.25;11.65;;;7.50;99.90;;;;;;5052246;28;20049;-28
2022/11/17 05:55:49;;;;;;;13.73;10.75;;;7.50;99.90;;;;;;5035433;28;20498;-29
2022/11/17 05:58:18;;;;;;;15.63;11.35;;;7.40;99.90;;;;;;5035346;28;20077;-29
2022/11/17 06:00:44;;;;;;;15.55;11.07;;;7.40;99.90;;;;;;5052029;28;20072;-29
2022/11/17 06:03:19;;;;;;;14.23;11.13;;;7.50;99.90;;;;;;5033573;28;20037;-29
2022/11/17 06:05:46;;;;;;;14.82;11.18;;;7.40;99.90;;;;;;5034956;28;20064;-29
2022/11/17 06:08:11;;;;;;;13.02;11.32;;;7.40;99.90;;;;;;5035216;28;20529;-29
2022/11/17 06:10:37;;;;;;;14.32;11.25;;;7.40;99.90;;;;;;5034820;28;20045;-30
2022/11/17 06:13:03;;;;;;;13.60;10.65;;;7.40;99.90;;;;;;5033246;28;20098;-29
2022/11/17 06:15:29;;;;;;;14.80;10.80;;;7.40;99.90;;;;;;5042000;28;20048;-30
2022/11/17 06:18:06;;;;;;;15.88;11.50;;;7.40;99.90;;;;;;5072848;28;20108;-29
2022/11/17 06:20:40;;;;;;;12.02;9.45;;;7.40;99.90;;;;;;5072830;28;20440;-30
2022/11/17 06:23:06;;;;;;;13.63;9.82;;;7.40;99.90;;;;;;5073001;28;20040;-29
2022/11/17 06:25:35;;;;;;;13.77;10.32;;;7.30;99.90;;;;;;5073111;28;20070;-29
2022/11/17 06:28:03;;;;;;;15.95;10.90;;;7.30;99.90;;;;;;5074132;28;20036;-28
2022/11/17 06:30:29;;;;;;;11.82;9.55;;;7.30;99.90;;;;;;5074556;28;20051;-29
2022/11/17 06:32:57;;;;;;;13.15;9.57;;;7.30;99.90;;;;;;5074589;28;20094;-30
2022/11/17 06:35:23;;;;;;;11.77;9.68;;;7.30;99.90;;;;;;5074657;28;20477;-29
2022/11/17 06:37:49;;;;;;;12.63;10.27;;;7.30;99.90;;;;;;5074448;28;20040;-30
2022/11/17 06:40:15;;;;;;;12.02;9.13;;;7.30;99.90;;;;;;5091251;28;20028;-29
2022/11/17 06:45:26;;;;;;;11.15;9.10;;;7.30;99.90;;;;;;5092055;28;20051;-29
2022/11/17 06:47:52;;;;;;;11.75;9.48;;;7.30;99.90;;;;;;5074606;28;20069;-29
2022/11/17 06:50:18;;;;;;;11.40;9.13;;;7.30;99.90;;;;;;5074093;28;20512;-29
2022/11/17 06:52:44;;;;;;;11.52;9.30;;;7.20;99.90;;;;;;5074075;28;20036;-28
2022/11/17 06:55:09;;;;;;;11.00;8.10;;;7.20;99.90;;;;;;5074109;28;20032;-30
2022/11/17 06:57:35;;;;;;;13.27;9.73;;;7.20;99.90;;;;;;5074544;28;20100;-29
2022/11/17 07:00:01;;;;;;;11.35;9.73;;;7.20;99.90;;;;;;5074027;28;20493;-30
2022/11/17 07:02:27;;;;;;;11.68;9.43;;;7.20;99.90;;;;;;5074431;28;20036;-29
2022/11/17 07:04:52;;;;;;;10.43;8.93;;;7.20;99.90;;;;;;5073963;28;20373;-29
2022/11/17 07:07:18;;;;;;;11.05;9.25;;;7.20;99.90;;;;;;5074310;28;20036;-29
2022/11/17 07:09:44;;;;;;;11.60;9.52;;;7.20;99.90;;;;;;5074316;28;20089;-29
2022/11/17 07:12:09;;;;;;;8.98;7.30;;;7.20;99.90;;;;;;5073850;28;20036;-28
2022/11/17 07:14:35;;;;;;;10.80;9.25;;;7.20;99.90;;;;;;5074261;28;20119;-30
2022/11/17 07:17:01;;;;;;;12.15;9.50;;;7.20;99.90;;;;;;5073963;28;20028;-30
2022/11/17 07:19:26;;;;;;;9.85;8.32;;;7.20;99.90;;;;;;5074029;28;20055;-29
2022/11/17 07:21:52;;;;;;;11.25;9.43;;;7.20;99.90;;;;;;5074078;28;20075;-30
2022/11/17 07:24:18;;;;;;;13.05;9.07;;;7.20;99.90;;;;;;5074157;28;20036;-29
2022/11/17 07:26:44;;;;;;;11.50;9.02;;;7.20;99.90;;;;;;5074000;28;20429;-29
2022/11/17 07:29:09;;;;;;;9.27;8.25;;;7.20;99.90;;;;;;5073653;28;20036;-30
2022/11/17 07:31:35;;;;;;;10.65;8.93;;;7.20;99.90;;;;;;5074137;28;20093;-30
2022/11/17 07:34:01;;;;;;;10.35;8.60;;;7.20;99.90;;;;;;5073735;28;20043;-30
2022/11/17 07:36:27;;;;;;;11.43;9.63;;;7.20;99.90;;;;;;5073973;28;20047;-29
2022/11/17 07:38:53;;;;;;;10.25;8.95;;;7.20;99.90;;;;;;5073926;28;20473;-30
2022/11/17 07:41:19;;;;;;;10.35;8.43;;;7.20;99.90;;;;;;5092082;28;20111;-29
2022/11/17 07:43:44;;;;;;;11.07;8.40;;;7.20;99.90;;;;;;5073620;28;20036;-29
2022/11/17 07:46:12;;;;;;;10.85;9.18;;;7.20;99.90;;;;;;5092510;28;20043;-30
2022/11/17 07:48:38;;;;;;;10.20;9.05;;;7.20;99.90;;;;;;5077661;28;20085;-30
2022/11/17 07:51:05;;;;;;;11.13;9.07;;;7.20;99.90;;;;;;5061285;28;20064;-29
2022/11/17 07:53:33;;;;;;;11.48;9.27;;;7.20;99.90;;;;;;5077749;28;20036;-29
2022/11/17 07:56:07;;;;;;;10.88;9.07;;;7.20;99.90;;;;;;5077387;28;20075;-29
2022/11/17 07:58:34;;;;;;;13.15;10.27;;;7.20;99.90;;;;;;5077858;28;20480;-29
2022/11/17 08:01:04;;;;;;;12.85;10.88;;;7.20;99.90;;;;;;5077352;28;20036;-29
2022/11/17 08:03:29;;;;;;;14.80;11.30;;;7.20;99.90;;;;;;5077687;28;20035;-29
2022/11/17 08:06:02;;;;;;;16.05;11.25;;;7.20;99.90;;;;;;5077492;28;20384;-30
2022/11/17 08:08:28;;;;;;;16.33;11.45;;;7.20;99.90;;;;;;5077461;28;20473;-29
2022/11/17 08:10:54;;;;;;;15.63;11.23;;;7.20;99.90;;;;;;5094397;28;20089;-29
2022/11/17 08:13:20;;;;;;;15.30;11.32;;;7.20;99.90;;;;;;5076996;28;20055;-29
2022/11/17 08:15:45;;;;;;;17.63;12.52;;;7.20;99.90;;;;;;5077359;28;20040;-29
2022/11/17 08:18:11;;;;;;;16.75;11.40;;;7.20;99.90;;;;;;5077490;28;20485;-31
2022/11/17 08:20:37;;;;;;;15.90;11.52;;;7.20;99.90;;;;;;5077182;28;20048;-29
2022/11/17 08:23:03;;;;;;;17.73;12.02;;;7.20;99.90;;;;;;5060297;28;20123;-29
2022/11/17 08:25:29;;;;;;;15.38;11.63;;;7.20;99.90;;;;;;5077157;28;20119;-30
2022/11/17 08:27:56;;;;;;;11.57;10.23;;;7.20;99.90;;;;;;5076959;28;20057;-29
2022/11/17 08:30:23;;;;;;;14.68;11.77;;;7.20;99.90;;;;;;5077077;28;20565;-30
2022/11/17 08:32:53;;;;;;;16.60;12.52;;;7.30;99.90;;;;;;5077432;28;20477;-30
2022/11/17 08:35:21;;;;;;;13.68;11.07;;;7.20;99.90;;;;;;5077247;28;20090;-30
2022/11/17 08:37:47;;;;;;;13.88;11.00;;;7.20;99.90;;;;;;5076965;28;20055;-31
2022/11/17 08:40:14;;;;;;;13.15;10.85;;;7.20;99.90;;;;;;5093427;28;20044;-29
2022/11/17 08:42:40;;;;;;;12.98;11.18;;;7.30;99.90;;;;;;5076719;28;20047;-29
2022/11/17 08:45:06;;;;;;;12.20;10.70;;;7.30;99.90;;;;;;5094907;28;20115;-29
2022/11/17 08:47:33;;;;;;;13.98;10.50;;;7.20;99.90;;;;;;5076235;28;20507;-29
2022/11/17 08:49:58;;;;;;;12.55;10.98;;;7.30;99.90;;;;;;5060182;28;20393;-30
2022/11/17 08:52:26;;;;;;;12.25;9.50;;;7.30;99.90;;;;;;5076504;28;20044;-28
2022/11/17 08:54:52;;;;;;;13.98;10.52;;;7.30;99.90;;;;;;5076571;28;20036;-29
2022/11/17 08:57:20;;;;;;;13.80;10.75;;;7.30;99.90;;;;;;5076585;28;20602;-31
2022/11/17 08:59:47;;;;;;;12.35;10.48;;;7.30;99.90;;;;;;5076328;28;20086;-29
2022/11/17 09:02:12;;;;;;;11.82;9.82;;;7.40;99.90;;;;;;5076572;28;20044;-29
2022/11/17 09:04:38;;;;;;;9.82;8.73;;;7.40;99.90;;;;;;5076207;28;20477;-28
2022/11/17 09:07:04;;;;;;;12.35;9.90;;;7.30;99.90;;;;;;5076395;28;20093;-30
2022/11/17 09:09:31;;;;;;;11.80;9.68;;;7.40;99.90;;;;;;5076274;28;20117;-30
2022/11/17 09:11:57;;;;;;;13.55;10.07;;;7.40;99.90;;;;;;5076362;28;20066;-28
2022/11/17 09:14:24;;;;;;;11.38;10.15;;;7.40;99.90;;;;;;5076420;28;20437;-30
2022/11/17 09:16:50;;;;;;;12.23;10.10;;;7.40;99.90;;;;;;5076093;28;20036;-30
2022/11/17 09:19:16;;;;;;;11.48;10.25;;;7.40;99.90;;;;;;5094272;28;20508;-29
2022/11/17 09:21:42;;;;;;;10.23;7.80;;;7.50;99.90;;;;;;5075941;28;20046;-28
2022/11/17 09:24:08;;;;;;;11.68;9.60;;;7.50;99.90;;;;;;5075746;28;20028;-29
2022/11/17 09:26:34;;;;;;;13.43;9.68;;;7.50;99.90;;;;;;5076082;28;20442;-28
2022/11/17 09:29:03;;;;;;;12.70;10.30;;;7.50;99.90;;;;;;5075977;28;20035;-29
2022/11/17 09:31:29;;;;;;;12.07;9.90;;;7.50;99.90;;;;;;5075978;28;20092;-29
2022/11/17 09:33:55;;;;;;;9.93;8.63;;;7.50;99.90;;;;;;5059403;28;20530;-28
2022/11/17 09:36:21;;;;;;;9.35;8.10;;;7.50;99.90;;;;;;5075371;28;20036;-30
2022/11/17 09:38:46;;;;;;;9.45;8.40;;;7.50;99.90;;;;;;5075775;28;20092;-28
2022/11/17 09:41:23;;;;;;;11.02;9.45;;;7.50;99.90;;;;;;5075308;28;20048;-29
2022/11/17 09:44:46;;;;;;;11.15;9.50;;;7.50;99.90;;;;;;5075816;28;20036;-28
2022/11/17 09:47:22;;;;;;;10.30;8.90;;;7.50;99.90;;;;;;5030726;28;20245;-28
2022/11/17 09:49:57;;;;;;;10.68;8.93;;;7.50;99.90;;;;;;5014381;28;20037;-29
2022/11/17 09:52:31;;;;;;;10.77;8.85;;;7.50;99.90;;;;;;5051070;28;20302;-29
2022/11/17 09:55:19;;;;;;;10.63;9.52;;;7.50;99.90;;;;;;5075516;28;20537;-30
2022/11/17 09:57:57;;;;;;;11.43;9.25;;;7.50;99.90;;;;;;5075428;28;20032;-28
2022/11/17 10:00:24;;;;;;;10.70;8.75;;;7.50;99.90;;;;;;5075132;28;20044;-29
2022/11/17 10:02:50;;;;;;;11.90;10.05;;;7.50;99.90;;;;;;5075240;28;20051;-30
2022/11/17 10:05:30;;;;;;;10.98;9.30;;;7.50;99.90;;;;;;5075275;28;20040;-29
2022/11/17 10:08:02;;;;;;;10.48;9.38;;;7.60;99.90;;;;;;5074851;28;20032;-28
2022/11/17 10:10:47;;;;;;;10.32;9.25;;;7.60;99.90;;;;;;5074939;28;20040;-28
2022/11/17 10:13:25;;;;;;;10.77;8.98;;;7.60;99.90;;;;;;5075213;28;20446;-28
2022/11/17 10:16:02;;;;;;;11.18;9.98;;;7.60;99.90;;;;;;5075168;28;20547;-28
2022/11/17 10:18:33;;;;;;;11.20;9.25;;;7.60;99.90;;;;;;5074694;28;20059;-29
2022/11/17 10:20:59;;;;;;;11.50;9.52;;;7.60;99.90;;;;;;5074741;28;20118;-28
2022/11/17 10:23:33;;;;;;;13.52;10.77;;;7.70;99.90;;;;;;5074953;28;20031;-31
2022/11/17 10:25:59;;;;;;;13.30;11.02;;;7.70;99.90;;;;;;5074563;28;20036;-28
2022/11/17 10:28:30;;;;;;;11.05;9.75;;;7.80;99.90;;;;;;5058314;28;20043;-28
2022/11/17 10:31:01;;;;;;;12.77;11.10;;;7.80;99.90;;;;;;5074714;28;20046;-29
2022/11/17 10:33:44;;;;;;;12.48;11.13;;;7.90;99.90;;;;;;5074733;28;20561;-28
2022/11/17 10:36:30;;;;;;;12.48;11.27;;;7.90;99.90;;;;;;5074557;28;20442;-28
2022/11/17 10:38:58;;;;;;;13.75;12.35;;;8.00;99.90;;;;;;5074762;28;20097;-29
2022/11/17 10:41:35;;;;;;;12.65;11.45;;;8.00;99.90;;;;;;5074359;28;20044;-30
2022/11/17 10:44:26;;;;;;;14.50;12.98;;;8.00;99.90;;;;;;5074671;28;20090;-28
2022/11/17 10:46:58;;;;;;;13.57;12.18;;;8.00;99.90;;;;;;5091098;28;20097;-28
2022/11/17 10:49:32;;;;;;;12.93;11.38;;;8.00;99.90;;;;;;5074139;28;20040;-30
2022/11/17 10:52:10;;;;;;;13.27;12.07;;;8.10;99.90;;;;;;5074182;28;20040;-29
2022/11/17 10:54:36;;;;;;;12.02;10.70;;;8.00;99.90;;;;;;5091264;28;20481;-28
2022/11/17 10:57:08;;;;;;;12.90;11.57;;;8.00;99.90;;;;;;5074492;28;20040;-29
2022/11/17 10:59:42;;;;;;;12.05;10.85;;;8.00;99.90;;;;;;5074163;28;20050;-28
2022/11/17 11:02:38;;;;;;;11.48;10.38;;;8.00;99.90;;;;;;5074390;28;20054;-30
2022/11/17 11:05:14;;;;;;;12.25;10.85;;;8.00;99.90;;;;;;5061702;28;20048;-29
2022/11/17 11:07:40;;;;;;;11.23;10.13;;;7.90;99.90;;;;;;5074446;28;20424;-29
2022/11/17 11:10:22;;;;;;;12.15;11.00;;;8.00;99.90;;;;;;5073904;28;20040;-28
2022/11/17 11:13:13;;;;;;;11.35;10.15;;;8.00;99.90;;;;;;5074474;28;20040;-28
2022/11/17 11:15:39;;;;;;;10.60;9.50;;;8.00;99.90;;;;;;5073923;28;20036;-29
2022/11/17 11:18:16;;;;;;;10.30;9.30;;;8.00;99.90;;;;;;5073928;28;20093;-29
2022/11/17 11:20:46;;;;;;;11.05;9.98;;;8.10;99.90;;;;;;5056491;28;20412;-28
2022/11/17 11:23:23;;;;;;;10.90;9.75;;;8.10;99.90;;;;;;5090866;28;20043;-31
2022/11/17 11:25:56;;;;;;;11.30;10.00;;;8.10;99.90;;;;;;5073872;28;20036;-29
2022/11/17 11:28:59;;;;;;;10.63;9.32;;;8.20;99.90;;;;;;5073886;28;20100;-28
2022/11/17 11:31:45;;;;;;;10.13;9.18;;;8.20;99.90;;;;;;5090989;28;20079;-28
2022/11/17 11:34:33;;;;;;;9.82;8.82;;;8.30;99.90;;;;;;5090890;28;20044;-28
2022/11/17 11:37:13;;;;;;;10.27;9.27;;;8.30;99.90;;;;;;5090950;28;20036;-28
2022/11/17 11:39:42;;;;;;;10.45;9.27;;;8.40;99.90;;;;;;5073898;28;20558;-29
2022/11/17 11:42:29;;;;;;;11.60;9.55;;;8.40;99.90;;;;;;5090616;28;20040;-29
2022/11/17 11:45:23;;;;;;;11.48;9.73;;;8.50;99.90;;;;;;5092358;28;20397;-28
2022/11/17 11:48:03;;;;;;;10.93;9.60;;;8.50;99.90;;;;;;5073711;28;20032;-28
2022/11/17 11:50:56;;;;;;;12.23;10.27;;;8.60;99.90;;;;;;5091758;28;20048;-28
2022/11/17 11:53:40;;;;;;;10.77;9.68;;;8.70;99.90;;;;;;5067378;28;20048;-28
2022/11/17 11:56:31;;;;;;;11.73;10.47;;;8.70;99.90;;;;;;5090473;28;20043;-30
2022/11/17 11:59:37;;;;;;;11.60;10.43;;;8.70;99.90;;;;;;5090668;28;20086;-29
2022/11/17 12:02:12;;;;;;;12.73;11.38;;;8.80;99.90;;;;;;5012481;28;20410;-29
2022/11/17 12:04:49;;;;;;;12.55;10.85;;;8.80;99.90;;;;;;5068818;28;20055;-29
2022/11/17 12:07:34;;;;;;;12.27;10.98;;;8.80;99.90;;;;;;5073729;28;20044;-28
2022/11/17 12:09:59;;;;;;;13.60;10.10;;;8.90;99.90;;;;;;5073309;28;20051;-28
2022/11/17 12:12:30;;;;;;;13.80;10.85;;;8.90;99.90;;;;;;5090259;28;20040;-28
2022/11/17 12:15:17;;;;;;;14.27;10.18;;;8.90;99.90;;;;;;5073679;28;20048;-29
2022/11/17 12:18:02;;;;;;;11.95;10.07;;;9.00;99.90;;;;;;5073603;28;20485;-28
2022/11/17 12:20:37;;;;;;;15.07;10.57;;;9.10;99.90;;;;;;5090302;28;20477;-28
2022/11/17 12:23:06;;;;;;;12.57;10.27;;;9.20;99.90;;;;;;5091720;28;20366;-29
2022/11/17 12:25:34;;;;;;;13.88;10.93;;;9.20;99.90;;;;;;5073165;28;20032;-29
2022/11/17 12:28:34;;;;;;;12.85;10.00;;;9.30;99.90;;;;;;5073265;28;20036;-28
2022/11/17 12:31:10;;;;;;;15.25;10.88;;;9.30;99.90;;;;;;5090389;28;20480;-29
2022/11/17 12:33:51;;;;;;;11.13;9.93;;;9.40;99.90;;;;;;5076798;28;20046;-30
2022/11/17 12:36:22;;;;;;;14.88;10.35;;;9.50;99.90;;;;;;5093858;28;20560;-28
2022/11/17 12:38:49;;;;;;;11.93;9.77;;;9.60;99.90;;;;;;5094961;28;20044;-30
2022/11/17 12:41:34;;;;;;;9.00;6.82;;;9.60;99.90;;;;;;5076515;28;20040;-29
2022/11/17 12:44:38;;;;;;;8.55;6.05;;;9.70;99.90;;;;;;5093606;28;20032;-30
2022/11/17 12:47:08;;;;;;;10.27;6.75;;;9.80;99.90;;;;;;5093142;28;20435;-30
2022/11/17 12:49:53;;;;;;;6.60;5.90;;;9.80;99.90;;;;;;5093735;28;20366;-29
2022/11/17 12:52:38;;;;;;;7.00;5.35;;;10.00;99.90;;;;;;5076851;28;20392;-28
2022/11/17 12:55:29;;;;;;;10.15;6.93;;;10.00;99.90;;;;;;5076620;28;20093;-29
2022/11/17 12:58:16;;;;;;;8.70;7.65;;;10.00;99.90;;;;;;5057479;28;20070;-29
2022/11/17 13:01:10;;;;;;;5.15;4.43;;;10.00;99.90;;;;;;5093528;28;20048;-30
2022/11/17 13:03:58;;;;;;;7.82;5.03;;;10.10;99.90;;;;;;5064426;28;20067;-29
2022/11/17 13:06:24;;;;;;;8.10;4.20;;;10.10;99.90;;;;;;5093111;28;20079;-31
2022/11/17 13:09:01;;;;;;;6.57;3.95;;;10.10;99.90;;;;;;5076145;28;20129;-28
2022/11/17 13:11:28;;;;;;;6.68;3.80;;;10.10;99.90;;;;;;5076214;28;20040;-28
2022/11/17 13:14:10;;;;;;;6.35;3.85;;;10.20;99.90;;;;;;5094429;28;20046;-28
2022/11/17 13:16:42;;;;;;;7.65;4.22;;;10.20;99.90;;;;;;5092851;28;20430;-28
2022/11/17 13:19:31;;;;;;;7.07;5.82;;;10.20;99.90;;;;;;5076196;28;20400;-28
2022/11/17 13:22:04;;;;;;;7.40;4.38;;;10.20;99.90;;;;;;5092822;28;20462;-29
2022/11/17 13:24:35;;;;;;;5.25;4.28;;;10.20;99.90;;;;;;5076163;28;20067;-30
2022/11/17 13:27:06;;;;;;;4.53;3.65;;;10.20;99.90;;;;;;5076121;28;20370;-29
2022/11/17 13:29:32;;;;;;;6.97;4.50;;;10.20;99.90;;;;;;5076249;28;20516;-29
2022/11/17 13:32:14;;;;;;;5.78;4.30;;;10.20;99.90;;;;;;5076342;28;20039;-29
2022/11/17 13:34:55;;;;;;;7.88;4.68;;;10.20;99.90;;;;;;5076248;28;20044;-30